Time;durP1;ratioP1;P1;durP2;ratioP2;P2;SDS_P1;SDS_P2;PMS_P1;PMS_P2;Temp;Humidity;BMP_temperature;BMP_pressure;BME280_temperature;BME280_humidity;BME280_pressure;Samples;Min_cycle;Max_cycle;Signal;HPM_P1;HPM_P2
2022/03/25 00:02:10;;;;;;;43.57;28.97;;;10.60;73.60;;;;;;4954233;28;20214;-81
2022/03/25 00:04:47;;;;;;;48.13;29.93;;;10.60;73.40;;;;;;4947066;28;20188;-81
2022/03/25 00:07:21;;;;;;;50.17;30.57;;;10.70;73.30;;;;;;4947803;28;20203;-79
2022/03/25 00:10:01;;;;;;;45.23;30.00;;;10.60;73.40;;;;;;4941817;28;20201;-80
2022/03/25 00:12:53;;;;;;;53.87;33.53;;;10.50;74.80;;;;;;4939821;29;20256;-81
2022/03/25 00:15:28;;;;;;;49.00;31.33;;;10.50;74.00;;;;;;4946900;28;20210;-80
2022/03/25 00:21:20;;;;;;;52.23;32.50;;;10.50;75.10;;;;;;4923244;28;20202;-80
2022/03/25 00:24:14;;;;;;;47.57;31.50;;;10.60;75.70;;;;;;4962606;28;20250;-81
2022/03/25 00:26:56;;;;;;;52.20;34.33;;;10.60;76.10;;;;;;4965277;28;20181;-82
2022/03/25 00:29:29;;;;;;;51.60;33.60;;;10.60;76.30;;;;;;4941197;28;20182;-81
2022/03/25 00:31:58;;;;;;;50.27;33.00;;;10.50;76.90;;;;;;4938590;28;20195;-81
2022/03/25 00:34:32;;;;;;;54.57;33.80;;;10.60;77.20;;;;;;4941634;28;20276;-80
2022/03/25 00:37:13;;;;;;;56.80;34.70;;;10.50;77.60;;;;;;4939015;28;20184;-82
2022/03/25 00:40:04;;;;;;;51.33;34.03;;;10.40;78.30;;;;;;4941136;28;20200;-83
2022/03/25 00:42:41;;;;;;;55.73;35.07;;;10.30;79.10;;;;;;4944252;28;20172;-83
2022/03/25 00:45:32;;;;;;;56.93;35.30;;;10.20;79.60;;;;;;4963319;28;20191;-81
2022/03/25 00:48:25;;;;;;;57.17;35.23;;;10.10;80.60;;;;;;4956402;28;20180;-82
2022/03/25 00:51:15;;;;;;;54.00;32.40;;;10.00;81.90;;;;;;4956501;28;20201;-81
2022/03/25 00:54:04;;;;;;;56.90;35.03;;;10.10;82.40;;;;;;4954499;29;20213;-82
2022/03/25 00:56:34;;;;;;;50.73;34.43;;;10.20;81.90;;;;;;4955732;28;20648;-81
2022/03/25 00:59:20;;;;;;;53.20;34.77;;;10.10;82.40;;;;;;4953554;28;20168;-81
2022/03/25 01:02:08;;;;;;;56.53;33.83;;;10.00;83.00;;;;;;4955030;28;20199;-81
2022/03/25 01:04:44;;;;;;;50.27;32.93;;;10.10;83.00;;;;;;4957359;28;20200;-80
2022/03/25 01:07:17;;;;;;;56.67;32.97;;;10.10;83.60;;;;;;4941933;28;20199;-81
2022/03/25 01:09:56;;;;;;;50.83;31.83;;;10.10;83.80;;;;;;4960577;28;20211;-80
2022/03/25 01:12:37;;;;;;;53.20;32.40;;;10.10;83.40;;;;;;4956106;29;20181;-81
2022/03/25 01:15:21;;;;;;;55.73;34.83;;;10.10;83.00;;;;;;4942394;28;20192;-80
2022/03/25 01:18:17;;;;;;;54.10;33.87;;;10.00;83.00;;;;;;4969933;28;20180;-81
2022/03/25 01:20:46;;;;;;;55.50;34.33;;;9.90;84.30;;;;;;4946195;28;20223;-81
2022/03/25 01:23:23;;;;;;;53.03;33.87;;;9.80;85.20;;;;;;4939228;28;20192;-81
2022/03/25 01:25:57;;;;;;;50.33;32.83;;;9.60;89.60;;;;;;4950848;28;20211;-81
2022/03/25 01:28:24;;;;;;;55.07;34.10;;;9.40;92.50;;;;;;4938937;28;20182;-81
2022/03/25 01:31:03;;;;;;;48.20;32.60;;;9.30;94.30;;;;;;4948391;28;20215;-81
2022/03/25 01:33:45;;;;;;;46.93;32.07;;;9.40;95.40;;;;;;4938359;28;20260;-81
2022/03/25 01:36:37;;;;;;;52.87;32.47;;;9.40;95.70;;;;;;4937651;28;20275;-82
2022/03/25 01:39:11;;;;;;;52.63;31.83;;;9.20;95.70;;;;;;4963920;28;20184;-82
2022/03/25 01:41:59;;;;;;;53.73;32.97;;;9.30;96.20;;;;;;4944512;28;20260;-82
2022/03/25 01:44:30;;;;;;;46.47;31.77;;;9.40;96.10;;;;;;4958459;28;20560;-81
2022/03/25 01:47:08;;;;;;;55.50;32.23;;;9.40;95.80;;;;;;4957782;28;20195;-81
2022/03/25 01:49:34;;;;;;;54.07;34.03;;;9.40;94.90;;;;;;4956605;28;20198;-80
2022/03/25 01:52:19;;;;;;;47.47;32.47;;;9.20;94.40;;;;;;4949376;28;20178;-81
2022/03/25 01:55:28;;;;;;;;;;;;;;;;;;;;;
2022/03/25 01:57:59;;;;;;;48.13;31.93;;;9.20;95.40;;;;;;4968779;28;20186;-81
2022/03/25 02:00:51;;;;;;;52.53;31.73;;;9.20;95.40;;;;;;4939129;28;20192;-82
2022/03/25 02:03:31;;;;;;;48.03;30.83;;;9.20;95.40;;;;;;4958807;28;20264;-81
2022/03/25 02:06:08;;;;;;;47.03;32.03;;;9.20;95.70;;;;;;4946038;28;20168;-82
2022/03/25 02:08:45;;;;;;;49.50;31.30;;;9.20;95.40;;;;;;4960932;28;20198;-81
2022/03/25 02:11:17;;;;;;;47.33;30.87;;;9.00;95.10;;;;;;4955424;28;20230;-79
2022/03/25 02:13:44;;;;;;;49.67;31.20;;;8.90;95.50;;;;;;4983183;28;20264;-80
2022/03/25 02:16:25;;;;;;;46.47;31.03;;;8.90;96.10;;;;;;4967847;28;20207;-80
2022/03/25 02:19:03;;;;;;;49.53;31.93;;;8.80;96.10;;;;;;4973741;28;20199;-77
2022/03/25 02:21:32;;;;;;;46.40;31.00;;;8.60;96.90;;;;;;4959722;28;20203;-80
2022/03/25 02:23:59;;;;;;;44.13;30.83;;;8.60;98.30;;;;;;4964636;28;20186;-80
2022/03/25 02:26:36;;;;;;;45.83;29.87;;;8.60;98.20;;;;;;4969530;28;20180;-81
2022/03/25 02:29:29;;;;;;;51.97;32.30;;;8.70;98.20;;;;;;4977253;28;20181;-81
2022/03/25 02:32:12;;;;;;;51.63;31.77;;;8.80;98.10;;;;;;4960524;28;20214;-82
2022/03/25 02:34:44;;;;;;;42.90;29.70;;;8.80;98.30;;;;;;4980374;28;20200;-78
2022/03/25 02:37:26;;;;;;;;;;;;;;;;;;;;;
2022/03/25 02:39:59;;;;;;;56.23;32.17;;;8.60;98.20;;;;;;4967173;29;20204;-82
2022/03/25 02:42:36;;;;;;;47.60;31.50;;;8.40;98.70;;;;;;4951048;28;20638;-82
2022/03/25 02:45:22;;;;;;;52.93;33.97;;;8.30;99.60;;;;;;4963220;28;20190;-79
2022/03/25 02:47:51;;;;;;;51.93;31.73;;;8.30;99.90;;;;;;4944280;28;20236;-81
2022/03/25 02:50:21;;;;;;;48.47;32.47;;;8.40;99.90;;;;;;4944275;28;20434;-81
2022/03/25 02:52:59;;;;;;;48.10;32.60;;;8.30;99.50;;;;;;4941792;28;20204;-81
2022/03/25 02:55:54;;;;;;;47.83;32.43;;;8.40;99.90;;;;;;4973608;28;20292;-80
2022/03/25 02:58:23;;;;;;;52.73;32.53;;;8.40;99.90;;;;;;4966854;28;20187;-79
2022/03/25 03:00:52;;;;;;;46.30;32.10;;;8.50;99.90;;;;;;4975615;28;20207;-82
2022/03/25 03:03:37;;;;;;;53.53;32.57;;;8.40;99.90;;;;;;4938582;28;20188;-81
2022/03/25 03:06:06;;;;;;;51.77;31.63;;;8.50;99.70;;;;;;4965563;28;20193;-81
2022/03/25 03:08:41;;;;;;;56.13;33.87;;;8.50;99.60;;;;;;4944708;28;20222;-82
2022/03/25 03:11:28;;;;;;;51.47;32.33;;;8.40;99.50;;;;;;4966360;28;20693;-81
2022/03/25 03:13:55;;;;;;;50.97;32.63;;;8.40;99.90;;;;;;4955662;28;20273;-82
2022/03/25 03:16:53;;;;;;;50.50;33.37;;;8.40;99.90;;;;;;4941533;28;20267;-79
2022/03/25 03:20:00;;;;;;;50.77;31.83;;;8.40;99.90;;;;;;4947199;28;20179;-78
2022/03/25 03:22:55;;;;;;;51.00;34.30;;;8.40;99.90;;;;;;4942683;28;20188;-80
2022/03/25 03:25:56;;;;;;;54.00;32.83;;;8.40;99.90;;;;;;4945764;28;20214;-79
2022/03/25 03:28:55;;;;;;;47.97;32.33;;;8.40;99.90;;;;;;4937820;28;20224;-80
2022/03/25 03:32:01;;;;;;;51.37;32.70;;;8.40;99.90;;;;;;4963291;28;20290;-80
2022/03/25 03:34:39;;;;;;;51.40;33.40;;;8.20;99.90;;;;;;4956449;28;20207;-81
2022/03/25 03:41:51;;;;;;;55.30;33.17;;;8.30;99.90;;;;;;4880286;29;20204;-79
2022/03/25 03:44:45;;;;;;;52.27;32.60;;;8.20;99.90;;;;;;4921790;28;20197;-79
2022/03/25 03:50:54;;;;;;;56.50;35.73;;;8.10;99.90;;;;;;4961031;28;20302;-79
2022/03/25 03:53:47;;;;;;;51.63;34.57;;;8.10;99.90;;;;;;4958953;28;20195;-80
2022/03/25 03:56:23;;;;;;;51.30;33.70;;;7.90;99.90;;;;;;4963882;28;20174;-80
2022/03/25 03:58:53;;;;;;;56.33;35.40;;;8.00;99.90;;;;;;4939012;28;20733;-80
2022/03/25 04:01:22;;;;;;;54.20;34.20;;;7.90;99.90;;;;;;4955039;28;20265;-79
2022/03/25 04:04:07;;;;;;;53.87;32.93;;;7.90;99.90;;;;;;4960780;28;20189;-79
2022/03/25 04:06:40;;;;;;;51.00;32.43;;;8.00;99.90;;;;;;4972122;28;20172;-80
2022/03/25 04:09:26;;;;;;;56.70;34.97;;;8.00;99.90;;;;;;4970497;28;20206;-79
2022/03/25 04:11:53;;;;;;;59.27;36.40;;;8.00;99.90;;;;;;4967311;28;20221;-79
2022/03/25 04:14:22;;;;;;;55.60;34.00;;;8.00;99.90;;;;;;4950728;28;20223;-78
2022/03/25 04:17:04;;;;;;;47.77;31.67;;;7.80;99.90;;;;;;4962967;28;20217;-79
2022/03/25 04:19:39;;;;;;;55.90;33.93;;;7.90;99.90;;;;;;4955812;28;20333;-78
2022/03/25 04:22:23;;;;;;;61.97;39.07;;;8.00;99.90;;;;;;4954056;29;20210;-79
2022/03/25 04:25:07;;;;;;;60.77;37.13;;;7.70;99.90;;;;;;4956416;28;20196;-77
2022/03/25 04:27:59;;;;;;;57.60;35.43;;;7.40;99.90;;;;;;4960091;28;20184;-80
2022/03/25 04:30:48;;;;;;;56.50;35.67;;;7.50;99.90;;;;;;4951141;28;20216;-80
2022/03/25 04:34:00;;;;;;;;;;;;;;;;;;;;;
2022/03/25 04:37:09;;;;;;;57.27;36.03;;;7.30;99.90;;;;;;4950859;28;20181;-80
2022/03/25 04:39:40;;;;;;;60.87;35.70;;;7.10;99.90;;;;;;4937051;28;20185;-80
2022/03/25 04:45:41;;;;;;;56.33;36.10;;;7.10;99.90;;;;;;4955006;28;20193;-80
2022/03/25 04:48:30;;;;;;;67.43;38.33;;;7.20;99.90;;;;;;4934800;28;20226;-80
2022/03/25 04:51:37;;;;;;;60.13;38.23;;;7.30;99.90;;;;;;4936794;28;20248;-80
2022/03/25 04:54:25;;;;;;;;;;;;;;;;;;;;;
2022/03/25 04:57:05;;;;;;;64.87;38.23;;;7.50;99.90;;;;;;4951984;28;20188;-80
2022/03/25 05:00:17;;;;;;;62.03;38.20;;;7.70;99.90;;;;;;4952976;28;20238;-80
2022/03/25 05:03:05;;;;;;;61.23;38.70;;;7.70;99.90;;;;;;4950852;28;20177;-79
2022/03/25 05:06:33;;;;;;;69.90;40.47;;;7.70;99.90;;;;;;4955097;28;20184;-81
2022/03/25 05:09:26;;;;;;;67.00;39.70;;;7.50;99.90;;;;;;4953613;28;20173;-81
2022/03/25 05:12:00;;;;;;;71.57;38.90;;;7.50;99.90;;;;;;4936492;28;20202;-79
2022/03/25 05:14:54;;;;;;;68.37;42.30;;;7.60;99.90;;;;;;4951579;28;20545;-80
2022/03/25 05:18:16;;;;;;;70.17;41.63;;;7.60;99.90;;;;;;4958152;28;20176;-78
2022/03/25 05:20:46;;;;;;;72.77;43.10;;;7.60;99.90;;;;;;4940657;28;20206;-80
2022/03/25 05:23:58;;;;;;;66.00;40.07;;;7.60;99.90;;;;;;4937399;28;20265;-80
2022/03/25 05:26:40;;;;;;;71.00;43.10;;;7.70;99.90;;;;;;4952380;28;20188;-79
2022/03/25 05:30:12;;;;;;;72.37;44.13;;;7.80;99.90;;;;;;4956132;28;20187;-79
2022/03/25 05:33:10;;;;;;;68.10;40.53;;;7.70;99.90;;;;;;4976285;28;20187;-79
2022/03/25 05:35:40;;;;;;;68.23;40.57;;;7.90;99.90;;;;;;4935318;28;20579;-80
2022/03/25 05:38:55;;;;;;;70.90;43.57;;;8.00;99.90;;;;;;4953123;28;20190;-80
2022/03/25 05:41:33;;;;;;;75.20;42.47;;;8.10;99.90;;;;;;4980328;28;20203;-80
2022/03/25 05:48:09;;;;;;;72.07;42.67;;;8.00;99.90;;;;;;4970075;28;20183;-79
2022/03/25 05:51:43;;;;;;;65.63;41.50;;;8.10;99.90;;;;;;4983201;28;20211;-79
2022/03/25 05:54:22;;;;;;;70.97;42.20;;;8.10;99.90;;;;;;4917287;28;20274;-80
2022/03/25 06:00:38;;;;;;;69.53;44.40;;;8.10;99.90;;;;;;4978889;28;20317;-79
2022/03/25 06:03:20;;;;;;;73.53;43.83;;;8.10;99.90;;;;;;4944803;28;20174;-80
2022/03/25 06:06:40;;;;;;;75.13;44.87;;;8.20;99.90;;;;;;4962206;28;20596;-79
2022/03/25 06:09:27;;;;;;;70.90;43.80;;;8.10;99.90;;;;;;4958223;28;20182;-80
2022/03/25 06:12:01;;;;;;;69.23;44.53;;;8.10;99.90;;;;;;4969726;28;20559;-80
2022/03/25 06:15:10;;;;;;;74.30;44.60;;;8.10;99.90;;;;;;4958844;29;20237;-80
2022/03/25 06:18:11;;;;;;;72.57;45.70;;;8.30;99.90;;;;;;4947520;28;20183;-80
2022/03/25 06:21:25;;;;;;;74.67;44.47;;;8.40;99.90;;;;;;4952785;28;20244;-82
2022/03/25 06:27:54;;;;;;;76.17;44.67;;;8.40;99.90;;;;;;4926984;29;20208;-81
2022/03/25 06:31:08;;;;;;;72.33;45.53;;;8.40;99.90;;;;;;4968175;28;20224;-80
2022/03/25 06:34:23;;;;;;;75.47;46.13;;;8.30;99.90;;;;;;4942137;28;20319;-80
2022/03/25 06:36:53;;;;;;;75.77;47.00;;;8.30;99.90;;;;;;4955566;28;20668;-80
2022/03/25 06:39:52;;;;;;;;;;;;;;;;;;;;;
2022/03/25 06:42:56;;;;;;;78.43;47.37;;;8.50;99.90;;;;;;4975906;28;20247;-80
2022/03/25 06:46:06;;;;;;;81.70;47.43;;;8.50;99.90;;;;;;4953439;28;20192;-81
2022/03/25 06:49:00;;;;;;;77.27;46.87;;;8.70;99.90;;;;;;4957739;28;20191;-80
2022/03/25 06:51:59;;;;;;;73.57;45.03;;;8.80;99.90;;;;;;4943682;28;20205;-81
2022/03/25 06:54:47;;;;;;;78.53;45.00;;;8.70;99.90;;;;;;4904942;28;20258;-80
2022/03/25 06:57:55;;;;;;;73.07;41.93;;;8.50;99.90;;;;;;4961946;28;20188;-82
2022/03/25 07:00:39;;;;;;;73.07;42.70;;;8.30;99.90;;;;;;4933209;29;20204;-80
2022/03/25 07:03:29;;;;;;;71.63;42.97;;;8.30;99.90;;;;;;4933839;29;20192;-80
2022/03/25 07:06:25;;;;;;;77.30;45.10;;;8.30;99.90;;;;;;4950745;29;20196;-82
2022/03/25 07:09:37;;;;;;;70.57;43.00;;;8.40;99.90;;;;;;4935417;28;20192;-83
2022/03/25 07:12:30;;;;;;;78.27;45.70;;;8.50;99.90;;;;;;4974906;28;20227;-78
2022/03/25 07:15:13;;;;;;;79.77;44.13;;;8.60;99.90;;;;;;4965780;28;20215;-80
2022/03/25 07:17:47;;;;;;;72.57;44.20;;;8.60;99.90;;;;;;4951242;28;20529;-78
2022/03/25 07:20:34;;;;;;;;;;;;;;;;;;;;;
2022/03/25 07:23:09;;;;;;;67.33;42.63;;;8.40;99.90;;;;;;4970339;28;20182;-79
2022/03/25 07:25:53;;;;;;;71.10;43.03;;;8.30;99.90;;;;;;4969595;28;20256;-80
2022/03/25 07:28:35;;;;;;;69.40;43.23;;;8.30;99.90;;;;;;4971841;28;20187;-78
2022/03/25 07:31:28;;;;;;;71.27;43.23;;;8.20;99.90;;;;;;4971983;28;20214;-80
2022/03/25 07:34:06;;;;;;;71.10;43.87;;;8.20;99.90;;;;;;4971447;28;20222;-78
2022/03/25 07:36:46;;;;;;;67.80;43.33;;;8.30;99.90;;;;;;4970763;28;20187;-79
2022/03/25 07:39:45;;;;;;;69.23;42.53;;;8.50;99.90;;;;;;4972707;28;20195;-80
2022/03/25 07:43:00;;;;;;;75.23;44.03;;;8.70;99.90;;;;;;4957837;28;20190;-80
2022/03/25 07:45:34;;;;;;;73.87;44.83;;;8.70;99.90;;;;;;4956903;28;20193;-79
2022/03/25 07:48:19;;;;;;;65.00;42.43;;;8.70;99.90;;;;;;4955473;28;20196;-80
2022/03/25 07:51:01;;;;;;;68.37;43.00;;;8.80;99.90;;;;;;4955304;28;20195;-79
2022/03/25 07:53:34;;;;;;;69.83;44.23;;;9.00;99.90;;;;;;4969926;28;20203;-78
2022/03/25 07:56:15;;;;;;;69.20;44.23;;;9.20;99.90;;;;;;4971980;28;20279;-79
2022/03/25 07:59:13;;;;;;;78.93;46.03;;;9.40;99.90;;;;;;4976267;28;20203;-79
2022/03/25 08:01:54;;;;;;;71.60;44.00;;;9.60;99.90;;;;;;4974228;28;20211;-81
2022/03/25 08:04:39;;;;;;;72.40;44.70;;;9.60;99.90;;;;;;4969704;28;20215;-80
2022/03/25 08:07:21;;;;;;;77.07;46.70;;;9.70;99.90;;;;;;4974190;28;20311;-79
2022/03/25 08:09:58;;;;;;;81.27;47.57;;;9.80;99.90;;;;;;4972917;28;20221;-80
2022/03/25 08:12:39;;;;;;;83.57;48.63;;;9.90;99.90;;;;;;4954995;29;20196;-80
2022/03/25 08:15:18;;;;;;;90.13;53.17;;;10.00;99.90;;;;;;4955405;29;20569;-80
2022/03/25 08:18:16;;;;;;;85.77;51.13;;;10.20;99.90;;;;;;4955415;29;20176;-81
2022/03/25 08:20:59;;;;;;;88.40;52.07;;;10.40;99.90;;;;;;4973785;28;20187;-79
2022/03/25 08:30:10;;;;;;;82.40;47.83;;;10.80;97.70;;;;;;4972330;28;20201;-81
2022/03/25 08:32:58;;;;;;;78.67;46.50;;;10.90;96.70;;;;;;4957497;28;20210;-79
2022/03/25 08:35:51;;;;;;;;;;;;;;;;;;;;;
2022/03/25 08:38:56;;;;;;;68.57;43.80;;;11.00;96.00;;;;;;4986481;28;20520;-79
2022/03/25 08:41:39;;;;;;;78.13;44.20;;;11.20;95.30;;;;;;4949319;28;20214;-78
2022/03/25 08:44:39;;;;;;;;;;;;;;;;;;;;;
2022/03/25 08:47:35;;;;;;;71.57;43.33;;;11.40;95.00;;;;;;4979747;28;20176;-79
2022/03/25 08:50:28;;;;;;;72.47;42.77;;;11.50;94.30;;;;;;4963344;28;20239;-79
2022/03/25 08:53:26;;;;;;;69.37;42.33;;;11.60;94.00;;;;;;4966193;28;20242;-79
2022/03/25 08:59:47;;;;;;;74.60;47.70;;;12.00;93.80;;;;;;4917371;29;20189;-79
2022/03/25 09:02:30;;;;;;;79.00;47.47;;;12.20;95.00;;;;;;4883769;29;20193;-79
2022/03/25 09:05:26;;;;;;;72.27;46.33;;;12.00;95.00;;;;;;4895614;29;20204;-79
2022/03/25 09:08:05;;;;;;;69.87;47.33;;;12.00;95.00;;;;;;4868872;29;20201;-79
2022/03/25 09:10:55;;;;;;;75.53;44.60;;;11.90;95.20;;;;;;4927727;29;20272;-79
2022/03/25 09:14:01;;;;;;;75.63;46.77;;;12.00;94.90;;;;;;4933958;29;20191;-78
2022/03/25 09:21:03;;;;;;;73.57;46.47;;;12.00;95.20;;;;;;4958982;29;20275;-81
2022/03/25 09:23:42;;;;;;;;;;;;;;;;;;;;;
2022/03/25 09:26:52;;;;;;;72.70;46.07;;;12.20;94.90;;;;;;4962301;29;20192;-79
2022/03/25 09:29:48;;;;;;;72.17;46.20;;;12.20;94.80;;;;;;4946475;29;20192;-81
2022/03/25 09:32:21;;;;;;;71.20;44.80;;;12.30;94.80;;;;;;4962626;29;20275;-83
2022/03/25 09:35:25;;;;;;;66.27;43.73;;;12.60;94.10;;;;;;4948086;29;20244;-81
2022/03/25 09:38:21;;;;;;;71.07;44.67;;;12.70;93.80;;;;;;4962688;29;20214;-84
2022/03/25 09:41:04;;;;;;;71.13;43.53;;;12.80;92.90;;;;;;4946680;29;20208;-80
2022/03/25 09:43:34;;;;;;;63.23;41.23;;;12.80;93.00;;;;;;4938097;29;20206;-79
2022/03/25 09:46:08;;;;;;;62.07;37.90;;;13.00;92.50;;;;;;4958775;29;20177;-79
2022/03/25 09:48:43;;;;;;;55.57;35.53;;;13.30;90.10;;;;;;4956181;29;20548;-79
2022/03/25 09:51:16;;;;;;;56.90;34.23;;;13.40;86.50;;;;;;4957004;29;20684;-79
2022/03/25 09:54:01;;;;;;;52.73;31.63;;;13.50;83.70;;;;;;4958627;28;20189;-77
2022/03/25 09:56:56;;;;;;;54.37;34.00;;;13.80;88.10;;;;;;4943591;29;20207;-77
2022/03/25 09:59:33;;;;;;;49.37;32.60;;;14.20;83.60;;;;;;4941756;29;20232;-77
2022/03/25 10:02:10;;;;;;;56.30;33.57;;;14.60;81.90;;;;;;4929661;29;20192;-76
2022/03/25 10:05:25;;;;;;;56.43;33.43;;;14.90;78.60;;;;;;4945098;29;20200;-76
2022/03/25 10:08:38;;;;;;;54.47;31.73;;;15.10;75.10;;;;;;4924611;29;20188;-77
2022/03/25 10:11:26;;;;;;;55.20;33.43;;;15.20;74.30;;;;;;4923949;29;20212;-77
2022/03/25 10:14:17;;;;;;;53.17;32.00;;;14.90;74.30;;;;;;4944855;28;20286;-76
2022/03/25 10:16:50;;;;;;;44.57;29.00;;;15.10;73.80;;;;;;4942597;28;20168;-77
2022/03/25 10:19:33;;;;;;;48.50;29.63;;;15.10;73.00;;;;;;4958152;28;20254;-78
2022/03/25 10:22:37;;;;;;;46.43;28.43;;;15.40;72.70;;;;;;4942910;28;20251;-78
2022/03/25 10:25:09;;;;;;;51.60;30.80;;;15.70;69.80;;;;;;4958636;28;20187;-79
2022/03/25 10:27:37;;;;;;;48.33;30.73;;;15.80;69.70;;;;;;4959111;28;20242;-78
2022/03/25 10:30:34;;;;;;;38.43;27.03;;;16.00;70.30;;;;;;4945998;28;20282;-78
2022/03/25 10:33:20;;;;;;;44.53;27.47;;;16.30;68.10;;;;;;4947300;28;20239;-78
2022/03/25 10:36:11;;;;;;;46.70;28.93;;;16.50;64.10;;;;;;4946328;28;20299;-78
2022/03/25 10:39:06;;;;;;;44.20;28.23;;;16.50;64.60;;;;;;4959258;28;20564;-78
2022/03/25 10:41:49;;;;;;;39.17;25.10;;;16.70;65.40;;;;;;4957732;28;20193;-77
2022/03/25 10:44:18;;;;;;;36.97;23.43;;;17.00;63.50;;;;;;4958816;28;20635;-78
2022/03/25 10:46:53;;;;;;;36.60;25.47;;;17.60;60.90;;;;;;4944421;28;20184;-77
2022/03/25 10:49:43;;;;;;;38.03;26.57;;;17.80;60.70;;;;;;4947800;28;20187;-77
2022/03/25 10:52:37;;;;;;;37.73;25.53;;;18.40;60.70;;;;;;4934568;29;20628;-77
2022/03/25 10:55:19;;;;;;;37.17;23.30;;;19.10;57.90;;;;;;4949728;28;20271;-77
2022/03/25 10:57:55;;;;;;;35.13;22.30;;;19.80;54.00;;;;;;4960207;28;20172;-76
2022/03/25 11:00:28;;;;;;;38.07;23.83;;;20.60;55.50;;;;;;4968858;28;20196;-77
2022/03/25 11:02:57;;;;;;;34.93;23.60;;;21.20;51.90;;;;;;4957075;28;20188;-78
2022/03/25 11:05:30;;;;;;;35.70;23.80;;;21.60;51.20;;;;;;4962381;28;20179;-79
2022/03/25 11:08:03;;;;;;;34.40;22.37;;;22.60;50.20;;;;;;4969243;28;20349;-78
2022/03/25 11:10:38;;;;;;;29.30;21.27;;;23.50;48.40;;;;;;4942791;29;20216;-77
2022/03/25 11:13:05;;;;;;;35.70;24.57;;;24.10;46.60;;;;;;4953086;29;20184;-78
2022/03/25 11:15:38;;;;;;;43.27;26.83;;;24.00;45.20;;;;;;4951560;29;20210;-77
2022/03/25 11:18:11;;;;;;;35.53;25.13;;;23.60;46.40;;;;;;4949026;28;20179;-77
2022/03/25 11:20:54;;;;;;;36.40;24.50;;;23.20;45.50;;;;;;4945663;28;20612;-76
2022/03/25 11:23:24;;;;;;;59.47;24.27;;;21.30;47.40;;;;;;4961470;28;20168;-76
2022/03/25 11:26:01;;;;;;;31.50;19.77;;;21.50;47.70;;;;;;4945438;28;20239;-80
2022/03/25 11:28:32;;;;;;;32.27;20.03;;;21.40;47.20;;;;;;4946314;29;20188;-79
2022/03/25 11:31:04;;;;;;;38.47;20.03;;;22.30;47.40;;;;;;4957227;28;20263;-76
2022/03/25 11:34:21;;;;;;;37.77;21.80;;;22.60;46.20;;;;;;4947623;28;20206;-77
2022/03/25 11:37:14;;;;;;;34.17;21.03;;;23.20;44.90;;;;;;4942315;28;20192;-77
2022/03/25 11:40:20;;;;;;;37.07;23.17;;;23.50;44.50;;;;;;4950861;29;20208;-78
2022/03/25 11:42:55;;;;;;;32.70;21.47;;;23.70;43.30;;;;;;4960876;28;20687;-79
2022/03/25 11:45:37;;;;;;;35.50;23.03;;;23.10;43.30;;;;;;4945216;28;20216;-77
2022/03/25 11:48:03;;;;;;;32.53;21.60;;;21.40;44.70;;;;;;4945558;28;20203;-78
2022/03/25 11:50:42;;;;;;;34.77;22.37;;;20.60;47.80;;;;;;4957644;29;20668;-77
2022/03/25 11:53:12;;;;;;;32.80;20.57;;;20.50;48.60;;;;;;4943590;28;20251;-75
2022/03/25 11:56:01;;;;;;;30.87;21.07;;;20.90;47.00;;;;;;4943149;28;20211;-76
2022/03/25 11:58:32;;;;;;;34.07;21.27;;;22.00;46.50;;;;;;4958437;28;20188;-76
2022/03/25 12:01:22;;;;;;;30.67;20.83;;;22.20;45.10;;;;;;4943257;28;20211;-75
2022/03/25 12:04:09;;;;;;;30.93;20.20;;;22.30;45.70;;;;;;4949371;29;20185;-76
2022/03/25 12:07:02;;;;;;;26.63;18.10;;;22.20;44.60;;;;;;4954532;28;20192;-77
2022/03/25 12:09:39;;;;;;;25.47;18.50;;;22.40;42.20;;;;;;4955656;29;20173;-76
2022/03/25 12:12:06;;;;;;;30.10;20.20;;;23.40;43.80;;;;;;4958164;28;20270;-75
2022/03/25 12:15:13;;;;;;;27.15;18.33;;;24.70;41.50;;;;;;4939638;28;20207;-77
2022/03/25 12:17:52;;;;;;;28.27;19.40;;;25.00;40.20;;;;;;4938677;29;20204;-75
2022/03/25 12:20:41;;;;;;;28.00;19.13;;;25.30;39.40;;;;;;4935909;28;20298;-74
2022/03/25 12:23:11;;;;;;;29.77;18.27;;;24.80;39.50;;;;;;4940052;29;20173;-77
2022/03/25 12:25:45;;;;;;;30.93;18.83;;;23.20;40.90;;;;;;4946113;28;20191;-75
2022/03/25 12:28:22;;;;;;;29.80;20.17;;;22.20;42.00;;;;;;4947261;28;20188;-76
2022/03/25 12:30:48;;;;;;;29.57;20.10;;;20.30;43.70;;;;;;4941195;28;20223;-76
2022/03/25 12:33:22;;;;;;;32.67;20.13;;;19.70;45.90;;;;;;4957352;28;20192;-75
2022/03/25 12:36:09;;;;;;;33.63;20.97;;;19.10;46.40;;;;;;4940775;28;20204;-76
2022/03/25 12:38:43;;;;;;;30.43;19.40;;;18.70;47.40;;;;;;4937751;29;20193;-76
2022/03/25 12:41:08;;;;;;;26.93;17.27;;;18.40;48.50;;;;;;4954086;29;20197;-76
2022/03/25 12:43:34;;;;;;;29.53;19.47;;;18.10;49.40;;;;;;4941089;28;20184;-75
2022/03/25 12:46:09;;;;;;;28.77;18.60;;;17.90;50.40;;;;;;4941526;28;20462;-76
2022/03/25 12:48:39;;;;;;;36.90;19.17;;;17.70;50.70;;;;;;4941490;28;20191;-77
2022/03/25 12:51:07;;;;;;;34.30;20.67;;;17.70;50.30;;;;;;4937852;29;20716;-75
2022/03/25 12:53:34;;;;;;;35.83;21.87;;;17.90;50.20;;;;;;4941738;29;20188;-77
2022/03/25 12:56:02;;;;;;;36.97;22.50;;;17.80;51.00;;;;;;4932938;28;20203;-76
2022/03/25 12:58:28;;;;;;;29.20;19.23;;;17.70;51.70;;;;;;4968594;23;20212;-76
2022/03/25 13:00:56;;;;;;;34.80;20.33;;;17.80;52.20;;;;;;4960184;28;20229;-75
2022/03/25 13:03:23;;;;;;;30.97;19.47;;;18.20;53.00;;;;;;4955142;29;20196;-75
2022/03/25 13:05:49;;;;;;;28.40;18.43;;;18.30;52.30;;;;;;4950116;28;20179;-74
2022/03/25 13:08:15;;;;;;;28.93;19.13;;;18.40;51.30;;;;;;4964903;29;20201;-75
2022/03/25 13:10:43;;;;;;;27.57;18.10;;;18.70;51.00;;;;;;4962463;28;20180;-76
2022/03/25 13:13:11;;;;;;;31.30;20.60;;;19.10;52.00;;;;;;4968237;28;20180;-75
2022/03/25 13:15:45;;;;;;;29.77;18.57;;;19.20;51.30;;;;;;4966748;29;20216;-75
2022/03/25 13:18:12;;;;;;;30.10;18.87;;;19.40;50.50;;;;;;4970082;28;20238;-76
2022/03/25 13:20:45;;;;;;;27.23;19.30;;;19.00;50.10;;;;;;4967894;29;20189;-75
2022/03/25 13:23:20;;;;;;;26.90;17.33;;;19.00;50.30;;;;;;4959496;28;20197;-76
2022/03/25 13:25:55;;;;;;;30.10;20.03;;;19.90;48.90;;;;;;4941462;28;20175;-75
2022/03/25 13:28:29;;;;;;;31.50;20.30;;;20.90;47.60;;;;;;4959511;28;20211;-75
2022/03/25 13:30:58;;;;;;;27.20;18.07;;;21.40;46.80;;;;;;4971623;28;20218;-76
2022/03/25 13:33:25;;;;;;;28.45;19.02;;;23.10;45.60;;;;;;4973502;28;20183;-77
2022/03/25 13:36:00;;;;;;;28.35;18.10;;;25.00;43.00;;;;;;4963103;28;20216;-76
2022/03/25 13:38:41;;;;;;;24.50;17.00;;;27.20;40.80;;;;;;4967341;28;20227;-75
2022/03/25 13:41:10;;;;;;;23.10;17.05;;;28.90;39.30;;;;;;4941117;28;20183;-76
2022/03/25 13:43:42;;;;;;;26.73;19.33;;;30.30;36.80;;;;;;4953468;29;20234;-77
2022/03/25 13:46:11;;;;;;;28.98;20.88;;;30.60;35.40;;;;;;4956709;28;20210;-77
2022/03/25 13:48:57;;;;;;;27.25;19.00;;;29.50;35.80;;;;;;4953299;29;20620;-76
2022/03/25 13:51:34;;;;;;;26.45;18.73;;;27.90;36.80;;;;;;4956524;28;20263;-75
2022/03/25 13:54:02;;;;;;;29.80;20.35;;;27.40;37.50;;;;;;4953142;29;20200;-75
2022/03/25 13:56:51;;;;;;;30.30;20.40;;;26.10;37.90;;;;;;4956280;28;20587;-75
2022/03/25 13:59:27;;;;;;;30.90;19.58;;;25.20;39.60;;;;;;4926352;28;20211;-74
2022/03/25 14:01:54;;;;;;;30.33;20.25;;;26.00;39.10;;;;;;4953547;29;20179;-77
2022/03/25 14:04:26;;;;;;;33.05;21.13;;;25.20;38.90;;;;;;4959690;28;20654;-76
2022/03/25 14:07:00;;;;;;;30.77;20.77;;;25.80;39.10;;;;;;4958402;28;20216;-76
2022/03/25 14:09:52;;;;;;;28.83;20.17;;;25.50;39.10;;;;;;4957191;29;20196;-76
2022/03/25 14:12:26;;;;;;;30.00;18.73;;;25.90;39.50;;;;;;4946531;28;20192;-76
2022/03/25 14:15:01;;;;;;;28.30;19.23;;;25.90;38.40;;;;;;4957897;28;20202;-76
2022/03/25 14:17:32;;;;;;;25.85;19.58;;;25.10;38.70;;;;;;4959743;28;20179;-76
2022/03/25 14:20:09;;;;;;;30.88;19.38;;;26.40;39.30;;;;;;4956833;29;20248;-77
2022/03/25 14:22:36;;;;;;;29.80;18.77;;;26.70;37.50;;;;;;4960110;28;20270;-76
2022/03/25 14:25:03;;;;;;;25.52;17.33;;;25.50;38.30;;;;;;4959107;28;20199;-76
2022/03/25 14:27:28;;;;;;;27.80;18.25;;;24.80;39.40;;;;;;4956298;29;20207;-76
2022/03/25 14:29:56;;;;;;;29.67;18.95;;;25.70;39.00;;;;;;4950276;28;20251;-76
2022/03/25 14:32:22;;;;;;;22.33;17.35;;;25.50;39.10;;;;;;4939834;29;20271;-76
2022/03/25 14:34:47;;;;;;;27.55;17.70;;;25.10;39.50;;;;;;4986397;28;20299;-76
2022/03/25 14:37:13;;;;;;;23.50;16.53;;;23.80;41.90;;;;;;4939499;29;20180;-75
2022/03/25 14:39:39;;;;;;;26.73;16.17;;;22.10;42.10;;;;;;4940130;29;20209;-76
2022/03/25 14:42:06;;;;;;;22.10;16.63;;;22.10;44.40;;;;;;4951250;28;20184;-76
2022/03/25 14:44:33;;;;;;;25.10;16.00;;;22.60;43.60;;;;;;4960249;28;20188;-76